Time;durP1;ratioP1;P1;durP2;ratioP2;P2;SDS_P1;SDS_P2;PMS_P1;PMS_P2;Temp;Humidity;BMP_temperature;BMP_pressure;BME280_temperature;BME280_humidity;BME280_pressure;Samples;Min_cycle;Max_cycle;Signal;HPM_P1;HPM_P2
2022/11/21 00:00:58;;;;;;;41.73;22.95;;;;;;;-2.01;92.75;99398.43;2836833;82;21055;-57
2022/11/21 00:05:01;;;;;;;40.40;25.70;;;;;;;-1.99;93.05;99406.16;2913425;79;21061;-58
2022/11/21 00:09:02;;;;;;;42.93;21.52;;;;;;;-2.03;93.26;99397.66;2911001;81;21022;-59
2022/11/21 00:13:09;;;;;;;44.10;24.65;;;;;;;-2.03;93.19;99382.45;2854149;82;21012;-60
2022/11/21 00:17:10;;;;;;;55.23;29.85;;;;;;;-2.03;93.19;99382.45;2938300;81;21013;-57
2022/11/21 00:21:15;;;;;;;47.62;24.25;;;;;;;-2.02;93.34;99380.23;2834377;82;21019;-57
2022/11/21 00:25:19;;;;;;;40.95;23.60;;;;;;;-2.06;93.49;99382.59;2917771;81;21054;-58
2022/11/21 00:29:20;;;;;;;44.23;28.85;;;;;;;-1.98;92.78;99384.87;2813107;82;21012;-58
2022/11/21 00:33:22;;;;;;;43.80;22.95;;;;;;;-1.91;92.17;99378.02;2938271;81;21007;-57
2022/11/21 00:37:24;;;;;;;39.98;23.67;;;;;;;-1.91;92.95;99362.81;2878585;82;20996;-58
2022/11/21 00:41:35;;;;;;;49.75;28.42;;;;;;;-1.85;94.17;99356.04;2937996;81;20956;-58
2022/11/21 00:45:38;;;;;;;42.33;25.65;;;;;;;-1.70;93.63;99351.02;2865566;81;21040;-57
2022/11/21 00:49:42;;;;;;;36.05;21.33;;;;;;;-1.50;93.32;99351.41;2914524;78;21010;-58
2022/11/21 00:53:44;;;;;;;33.42;20.70;;;;;;;-1.43;93.50;99351.49;2885395;82;20992;-57
2022/11/21 00:57:45;;;;;;;41.08;23.80;;;;;;;-1.40;94.81;99353.95;2853316;81;21039;-57
2022/11/21 01:01:49;;;;;;;43.02;24.10;;;;;;;-1.37;96.51;99340.78;2838712;82;21059;-59
2022/11/21 01:05:50;;;;;;;46.13;25.88;;;;;;;-1.26;97.05;99345.94;2921315;80;21023;-57
2022/11/21 01:09:51;;;;;;;51.08;32.60;;;;;;;-1.05;96.86;99343.59;2901472;81;21059;-58
2022/11/21 01:13:53;;;;;;;47.98;30.08;;;;;;;-0.86;96.42;99342.68;2885808;81;20993;-58
2022/11/21 01:18:10;;;;;;;49.95;27.50;;;;;;;-0.68;96.49;99332.23;2869744;80;20983;-58
2022/11/21 01:22:11;;;;;;;52.25;28.67;;;;;;;-0.61;97.17;99324.46;2898821;79;21003;-57
2022/11/21 01:26:17;;;;;;;52.95;33.58;;;;;;;-0.50;96.32;99316.93;2903910;80;20992;-57
2022/11/21 01:30:18;;;;;;;52.73;30.30;;;;;;;-0.33;95.93;99316.52;2914587;80;21058;-60
2022/11/21 01:34:20;;;;;;;64.20;32.25;;;;;;;-0.24;96.04;99302.13;2947705;79;21074;-58
2022/11/21 01:38:23;;;;;;;51.80;27.58;;;;;;;-0.16;95.55;99308.64;2942216;79;21011;-57
2022/11/21 01:42:24;;;;;;;57.40;29.98;;;;;;;-0.12;95.74;99298.02;2942547;79;21023;-58
2022/11/21 01:46:42;;;;;;;57.95;29.63;;;;;;;-0.03;95.96;99294.44;2970512;79;20979;-57
2022/11/21 01:50:45;;;;;;;52.65;30.27;;;;;;;0.16;95.73;99293.44;2937448;81;20964;-58
2022/11/21 01:55:11;;;;;;;48.95;28.65;;;;;;;0.36;94.34;99283.66;2897930;79;21022;-58
2022/11/21 01:59:18;;;;;;;52.08;27.75;;;;;;;0.40;92.75;99284.72;2869367;82;20988;-58
2022/11/21 02:03:32;;;;;;;45.38;27.22;;;;;;;0.47;92.79;99279.95;2901945;81;21054;-58
2022/11/21 02:07:38;;;;;;;49.60;28.95;;;;;;;0.66;93.21;99270.61;2862907;82;21016;-58
2022/11/21 02:16:10;;;;;;;77.05;40.88;;;;;;;0.88;91.47;99247.12;2938000;79;20968;-59
2022/11/21 02:20:15;;;;;;;58.33;34.90;;;;;;;0.90;90.59;99236.08;2914398;81;21000;-59
2022/11/21 02:24:29;;;;;;;54.05;26.40;;;;;;;0.88;90.64;99231.86;2885572;82;20969;-58
2022/11/21 02:28:31;;;;;;;53.13;30.52;;;;;;;0.81;91.56;99226.16;2906337;79;20963;-58
2022/11/21 02:32:40;;;;;;;45.33;24.95;;;;;;;0.71;92.39;99220.62;2934156;81;20987;-59
2022/11/21 02:36:46;;;;;;;48.45;29.57;;;;;;;0.65;93.49;99219.64;2916652;81;21055;-58
2022/11/21 02:41:14;;;;;;;43.55;24.75;;;;;;;0.61;94.66;99199.82;2938888;81;20995;-58
2022/11/21 02:45:30;;;;;;;42.10;26.02;;;;;;;0.74;94.35;99194.71;2872830;82;21010;-58
2022/11/21 02:49:43;;;;;;;46.45;26.85;;;;;;;0.82;94.03;99183.34;2883606;81;21005;-58
2022/11/21 02:53:45;;;;;;;38.25;24.32;;;;;;;0.85;93.71;99181.84;2866241;80;20987;-57
2022/11/21 02:57:46;;;;;;;45.85;27.58;;;;;;;0.88;94.27;99175.56;2925818;81;20971;-58
2022/11/21 03:02:06;;;;;;;40.43;26.97;;;;;;;0.97;94.34;99161.45;2836729;83;20956;-58
2022/11/21 03:06:08;;;;;;;41.73;23.77;;;;;;;1.04;94.44;99155.87;2877368;82;21040;-58
2022/11/21 03:10:09;;;;;;;36.60;24.75;;;;;;;1.09;94.43;99143.33;2944873;79;21252;-59
2022/11/21 03:14:24;;;;;;;36.73;22.87;;;;;;;1.16;94.36;99145.11;2912757;78;20976;-59
2022/11/21 03:18:25;;;;;;;38.02;21.80;;;;;;;1.24;93.89;99138.46;2939575;79;21044;-57
2022/11/21 03:22:27;;;;;;;33.58;22.13;;;;;;;1.20;93.49;99133.05;2932386;79;20973;-58
2022/11/21 03:26:29;;;;;;;37.60;24.98;;;;;;;1.13;94.07;99121.23;2944832;78;21011;-59
2022/11/21 03:30:43;;;;;;;43.65;23.15;;;;;;;1.15;94.32;99114.12;2899398;79;21039;-58
2022/11/21 03:34:44;;;;;;;38.17;21.00;;;;;;;0.98;95.37;99108.17;2839290;84;21005;-57
2022/11/21 03:38:58;;;;;;;30.32;20.50;;;;;;;0.98;95.96;99097.70;2934570;79;20956;-58
2022/11/21 03:43:06;;;;;;;41.75;25.27;;;;;;;0.96;96.84;99092.17;2944280;81;20991;-60
2022/11/21 03:47:08;;;;;;;36.90;24.37;;;;;;;1.02;96.25;99083.92;2929729;79;20991;-57
2022/11/21 03:51:10;;;;;;;35.05;23.38;;;;;;;0.98;95.75;99076.75;2898635;79;21003;-59
2022/11/21 03:55:12;;;;;;;35.45;21.02;;;;;;;0.93;96.49;99068.31;2896358;81;20992;-59
2022/11/21 03:59:14;;;;;;;44.77;24.87;;;;;;;0.90;97.34;99074.22;2886155;79;21022;-58
2022/11/21 04:03:15;;;;;;;36.73;24.37;;;;;;;0.93;97.25;99060.45;2940423;79;20948;-57
2022/11/21 04:07:16;;;;;;;39.70;23.57;;;;;;;0.96;97.25;99055.02;2936887;77;21022;-59
2022/11/21 04:11:20;;;;;;;37.40;22.80;;;;;;;1.02;97.42;99056.42;2952980;80;21023;-58
2022/11/21 04:15:22;;;;;;;43.08;27.45;;;;;;;1.13;97.06;99050.52;2954343;79;20963;-58
2022/11/21 04:19:23;;;;;;;40.08;22.73;;;;;;;1.19;96.57;99037.05;2952829;80;21032;-57
2022/11/21 04:23:25;;;;;;;45.40;23.12;;;;;;;1.23;96.92;99041.16;2951787;80;21017;-58
2022/11/21 04:27:27;;;;;;;32.23;20.05;;;;;;;1.30;96.65;99035.06;2903049;80;20978;-58
2022/11/21 04:31:28;;;;;;;33.38;21.25;;;;;;;1.25;97.66;99028.80;2944706;80;21081;-58
2022/11/21 04:35:32;;;;;;;33.30;19.67;;;;;;;1.25;97.63;99020.08;2952911;80;21030;-58
2022/11/21 04:39:33;;;;;;;45.15;28.05;;;;;;;1.33;97.43;99002.11;2950467;80;20979;-58
2022/11/21 04:43:34;;;;;;;38.83;23.77;;;;;;;1.32;97.75;98998.27;2897549;80;20998;-58
2022/11/21 04:47:40;;;;;;;36.75;23.15;;;;;;;1.39;97.83;98998.27;2938177;79;21452;-58
2022/11/21 04:51:41;;;;;;;38.25;23.00;;;;;;;1.45;97.84;98995.23;2951597;80;20971;-58
2022/11/21 04:55:54;;;;;;;37.40;20.75;;;;;;;1.50;97.75;98980.05;2920177;80;21026;-57
2022/11/21 04:59:56;;;;;;;31.87;22.02;;;;;;;1.27;99.87;98986.31;2927568;78;21108;-56
2022/11/21 05:03:57;;;;;;;33.33;19.02;;;;;;;1.17;100.00;98981.27;2953028;80;20966;-58
2022/11/21 05:08:14;;;;;;;40.45;20.20;;;;;;;1.08;100.00;98977.49;2971631;78;21042;-58
2022/11/21 05:16:34;;;;;;;30.95;20.23;;;;;;;1.36;100.00;98972.23;2976618;78;20963;-56
2022/11/21 05:20:41;;;;;;;41.35;24.72;;;;;;;1.38;100.00;98963.34;2967366;80;21057;-56
2022/11/21 05:24:42;;;;;;;47.00;26.12;;;;;;;1.50;99.20;98956.45;2938156;80;20942;-56
2022/11/21 05:28:43;;;;;;;38.70;21.87;;;;;;;1.60;98.35;98955.38;2929948;79;20978;-55
2022/11/21 05:32:44;;;;;;;37.60;24.35;;;;;;;1.64;98.11;98950.78;2956842;80;21005;-56
2022/11/21 05:36:46;;;;;;;41.42;25.95;;;;;;;1.66;97.97;98946.28;2969053;78;21021;-56
2022/11/21 05:40:47;;;;;;;32.15;20.27;;;;;;;1.66;97.88;98939.23;2961488;78;21010;-56
2022/11/21 05:44:48;;;;;;;46.17;25.87;;;;;;;1.63;98.46;98942.55;2940085;79;20953;-56
2022/11/21 05:48:51;;;;;;;39.70;27.65;;;;;;;1.73;98.37;98929.19;2907670;80;20939;-56
2022/11/21 05:53:11;;;;;;;43.17;27.15;;;;;;;1.66;98.85;98923.99;2977142;80;20978;-56
2022/11/21 05:57:12;;;;;;;46.45;27.73;;;;;;;1.58;98.80;98919.75;2921284;80;22031;-56
2022/11/21 06:05:43;;;;;;;34.92;23.52;;;;;;;1.45;99.53;98910.06;2929903;80;21519;-58
2022/11/21 06:09:44;;;;;;;36.68;25.95;;;;;;;1.49;99.58;98902.84;2937773;80;20959;-58
2022/11/21 06:13:57;;;;;;;38.63;21.48;;;;;;;1.46;100.00;98902.57;2840884;80;20979;-58
2022/11/21 06:18:00;;;;;;;45.55;26.20;;;;;;;1.38;100.00;98897.83;2934900;80;20995;-58
2022/11/21 06:22:01;;;;;;;41.42;25.85;;;;;;;1.42;100.00;98901.10;2967129;77;21021;-58
2022/11/21 06:26:06;;;;;;;38.85;26.90;;;;;;;1.27;100.00;98903.78;2967112;80;21018;-57
2022/11/21 06:30:10;;;;;;;46.05;28.05;;;;;;;1.38;100.00;98904.38;2967097;80;20982;-57
2022/11/21 06:34:14;;;;;;;35.63;22.32;;;;;;;1.40;100.00;98905.13;2957796;80;20975;-57
2022/11/21 06:38:17;;;;;;;39.00;22.27;;;;;;;1.41;100.00;98907.28;2956287;78;20955;-58
2022/11/21 06:42:18;;;;;;;34.15;24.05;;;;;;;1.33;100.00;98903.00;2960331;80;20985;-57
2022/11/21 06:46:19;;;;;;;40.23;23.47;;;;;;;1.30;100.00;98897.52;2908183;81;20988;-58
2022/11/21 06:50:23;;;;;;;35.00;22.65;;;;;;;1.28;100.00;98905.46;2897340;81;21042;-58
2022/11/21 06:54:24;;;;;;;44.45;24.77;;;;;;;1.33;100.00;98901.69;2887593;80;20936;-58
2022/11/21 06:58:27;;;;;;;35.17;21.93;;;;;;;1.36;100.00;98893.63;2886620;82;20976;-58
2022/11/21 07:02:28;;;;;;;40.55;25.90;;;;;;;1.44;100.00;98904.45;2966930;80;20986;-58
2022/11/21 07:06:37;;;;;;;40.83;24.67;;;;;;;1.48;100.00;98895.44;2925419;80;21022;-58
2022/11/21 07:10:38;;;;;;;46.58;29.02;;;;;;;1.57;100.00;98899.23;2923276;81;20983;-57
2022/11/21 07:14:39;;;;;;;45.55;28.55;;;;;;;1.70;100.00;98898.79;2861502;82;21061;-57
2022/11/21 07:18:50;;;;;;;45.65;27.95;;;;;;;1.89;100.00;98900.62;2938346;80;21062;-57
2022/11/21 07:22:54;;;;;;;42.90;29.48;;;;;;;2.06;100.00;98900.31;2847304;82;21043;-57
2022/11/21 07:27:04;;;;;;;38.98;24.10;;;;;;;2.20;100.00;98903.28;2889584;81;21011;-58
2022/11/21 07:31:05;;;;;;;40.23;26.50;;;;;;;2.38;100.00;98902.49;2885149;82;21438;-57
2022/11/21 07:35:12;;;;;;;41.88;28.50;;;;;;;2.37;100.00;98906.06;2900988;79;21022;-58
2022/11/21 07:39:14;;;;;;;38.58;27.45;;;;;;;2.48;100.00;98906.62;2885424;82;21024;-58
2022/11/21 07:43:30;;;;;;;36.55;21.35;;;;;;;2.64;100.00;98905.52;2938050;80;21026;-58
2022/11/21 07:47:31;;;;;;;33.93;23.50;;;;;;;2.60;100.00;98903.60;2936144;81;21002;-57
2022/11/21 07:51:33;;;;;;;36.53;26.05;;;;;;;2.68;100.00;98892.55;2938233;81;20936;-58
2022/11/21 07:55:38;;;;;;;33.90;21.82;;;;;;;2.82;100.00;98898.13;2923177;80;20961;-58
2022/11/21 07:59:39;;;;;;;31.33;20.90;;;;;;;2.98;100.00;98905.73;2894117;81;20940;-57
2022/11/21 08:03:40;;;;;;;43.00;25.52;;;;;;;3.12;100.00;98907.34;2913080;79;21035;-57
2022/11/21 08:07:42;;;;;;;34.15;26.17;;;;;;;3.28;99.62;98904.45;2901345;79;21006;-58
2022/11/21 08:11:46;;;;;;;31.75;22.02;;;;;;;3.42;99.19;98899.47;2940398;80;21022;-57
2022/11/21 08:15:47;;;;;;;32.83;18.82;;;;;;;3.58;98.76;98905.73;2914168;80;20978;-58
2022/11/21 08:19:57;;;;;;;24.85;18.00;;;;;;;3.65;98.25;98894.28;2960210;79;21029;-58
2022/11/21 08:23:58;;;;;;;26.15;20.23;;;;;;;3.77;97.83;98892.05;2900897;80;20984;-57
2022/11/21 08:28:01;;;;;;;31.60;21.55;;;;;;;3.96;97.33;98897.22;2967245;80;20967;-57
2022/11/21 08:32:03;;;;;;;28.90;19.00;;;;;;;3.98;96.37;98907.14;2909126;80;21539;-57
2022/11/21 08:36:06;;;;;;;40.35;24.52;;;;;;;4.12;96.93;98908.22;2958344;80;20947;-57
2022/11/21 08:40:10;;;;;;;35.55;23.65;;;;;;;4.27;96.77;98910.63;2967163;80;20967;-57
2022/11/21 08:44:14;;;;;;;38.13;24.55;;;;;;;4.40;95.91;98913.13;2920551;80;20983;-57
2022/11/21 08:48:21;;;;;;;39.00;23.00;;;;;;;4.48;94.82;98913.85;2918693;80;21002;-57
2022/11/21 08:52:22;;;;;;;32.15;19.70;;;;;;;4.54;94.77;98916.84;2953126;80;20994;-57
2022/11/21 08:56:36;;;;;;;32.65;21.20;;;;;;;4.57;93.84;98910.02;2960243;80;20939;-57
2022/11/21 09:00:37;;;;;;;34.63;22.48;;;;;;;4.61;93.63;98911.94;2884369;80;21061;-58
2022/11/21 09:04:39;;;;;;;41.55;23.02;;;;;;;4.69;94.02;98919.23;2937633;80;21030;-57
2022/11/21 09:08:40;;;;;;;37.93;20.72;;;;;;;4.78;93.73;98915.03;2941552;80;21015;-58
2022/11/21 09:12:42;;;;;;;106.83;64.42;;;;;;;4.74;94.32;98922.83;2836575;82;21035;-57
2022/11/21 09:21:03;;;;;;;30.08;20.17;;;;;;;4.86;94.21;98925.78;2978667;78;20969;-58
2022/11/21 09:25:05;;;;;;;33.50;22.15;;;;;;;4.98;95.10;98934.03;2957420;80;20984;-58
2022/11/21 09:29:09;;;;;;;36.73;24.37;;;;;;;5.12;94.01;98935.55;2937824;81;21031;-58
2022/11/21 09:33:13;;;;;;;39.85;21.60;;;;;;;5.06;91.72;98937.84;2973076;80;21056;-56
2022/11/21 09:37:15;;;;;;;30.95;20.02;;;;;;;5.06;92.36;98936.52;2950439;79;21035;-56
2022/11/21 09:41:52;;;;;;;34.05;19.77;;;;;;;5.08;92.50;98945.99;2938581;81;20983;-56
2022/11/21 09:46:10;;;;;;;;;;;;;;;5.03;91.97;98946.84;2861183;82;21004;-56
2022/11/21 09:50:26;;;;;;;21.60;15.95;;;;;;;5.16;93.10;98944.06;2899839;81;20088;-57
2022/11/21 09:54:33;;;;;;;26.85;20.05;;;;;;;5.30;92.98;98945.56;2896528;81;20968;-56
2022/11/21 09:59:03;;;;;;;25.20;18.20;;;;;;;5.38;92.98;98951.04;2938101;81;21019;-56
2022/11/21 10:08:57;;;;;;;31.65;21.15;;;;;;;5.61;92.66;98950.98;2836986;83;21016;-56
2022/11/21 10:13:07;;;;;;;22.65;16.93;;;;;;;5.72;92.92;98952.72;2967285;80;20915;-56
2022/11/21 10:22:34;;;;;;;25.45;15.85;;;;;;;5.89;93.51;98941.22;2906684;81;20987;-56
2022/11/21 10:26:57;;;;;;;21.93;15.95;;;;;;;6.12;92.78;98952.52;2977089;77;21014;-56
2022/11/21 10:31:00;;;;;;;49.53;30.00;;;;;;;6.26;92.14;98948.70;2978955;79;20952;-56
2022/11/21 10:35:15;;;;;;;56.92;34.38;;;;;;;6.22;91.63;98960.49;2963245;79;21257;-56
2022/11/21 10:39:39;;;;;;;49.15;32.23;;;;;;;6.17;90.91;98966.66;2960482;79;21075;-56
2022/11/21 10:48:34;;;;;;;55.33;33.28;;;;;;;6.04;90.83;98981.38;2865357;82;21058;-56
2022/11/21 10:52:48;;;;;;;45.00;30.72;;;;;;;5.90;90.12;98979.37;2887793;81;21007;-56
2022/11/21 10:56:52;;;;;;;55.25;35.33;;;;;;;5.74;92.04;98982.92;2866481;83;20987;-56
2022/11/21 11:00:57;;;;;;;51.30;32.42;;;;;;;5.64;91.12;98981.52;2815834;84;21917;-56
2022/11/21 11:05:23;;;;;;;48.25;31.35;;;;;;;5.60;91.51;98994.62;2794899;83;21022;-56
2022/11/21 11:09:45;;;;;;;36.45;24.07;;;;;;;5.67;91.84;98996.63;2814641;84;21036;-56
2022/11/21 11:14:09;;;;;;;38.08;22.48;;;;;;;5.67;91.27;99011.61;2834496;82;21055;-56
2022/11/21 11:18:13;;;;;;;42.45;26.93;;;;;;;5.57;90.81;99018.97;2806514;83;20988;-56
2022/11/21 11:22:29;;;;;;;54.85;34.55;;;;;;;5.35;92.20;99025.63;2860089;80;21002;-56
2022/11/21 11:26:31;;;;;;;52.88;30.05;;;;;;;5.14;93.23;99033.80;2956702;80;20985;-56
2022/11/21 11:30:36;;;;;;;42.45;20.23;;;;;;;4.98;94.82;99034.18;2956532;80;21050;-56
2022/11/21 11:35:03;;;;;;;35.88;18.25;;;;;;;4.66;98.51;99043.28;2909746;82;21066;-56
2022/11/21 11:39:19;;;;;;;42.27;16.80;;;;;;;4.32;100.00;99042.73;2976815;77;21030;-56
2022/11/21 11:48:10;;;;;;;63.38;38.88;;;;;;;3.98;100.00;99045.29;2993959;79;20975;-56
2022/11/21 11:52:13;;;;;;;79.62;53.92;;;;;;;3.94;100.00;99044.67;3016868;78;21049;-56
2022/11/21 11:56:23;;;;;;;75.30;41.90;;;;;;;3.95;100.00;99054.73;3002606;79;21015;-57
2022/11/21 12:00:53;;;;;;;34.75;20.68;;;;;;;3.90;100.00;99058.16;2972499;77;21011;-56
2022/11/21 12:05:00;;;;;;;23.07;15.98;;;;;;;3.85;100.00;99063.78;3008524;77;20995;-56
2022/11/21 12:09:28;;;;;;;24.18;14.93;;;;;;;3.79;100.00;99074.73;2895998;82;21038;-56
2022/11/21 12:13:32;;;;;;;18.67;12.20;;;;;;;3.68;100.00;99065.84;2959330;79;20937;-56
2022/11/21 12:18:19;;;;;;;18.00;13.00;;;;;;;3.64;100.00;99071.44;2938525;81;21492;-54
2022/11/21 12:22:20;;;;;;;18.15;11.08;;;;;;;3.49;100.00;99071.58;2938386;81;21003;-56
2022/11/21 12:27:02;;;;;;;17.67;10.88;;;;;;;3.44;100.00;99082.91;2938465;81;20972;-56
2022/11/21 12:31:36;;;;;;;23.98;17.02;;;;;;;3.46;100.00;99084.13;2938064;80;20975;-56
2022/11/21 12:36:08;;;;;;;20.92;13.45;;;;;;;3.56;100.00;99088.62;2885478;82;21047;-56
2022/11/21 12:40:59;;;;;;;24.32;17.52;;;;;;;3.50;100.00;99099.55;2937075;81;21054;-56
2022/11/21 12:45:39;;;;;;;32.55;21.17;;;;;;;3.36;100.00;99102.34;2857191;82;20992;-56
2022/11/21 12:54:56;;;;;;;36.38;25.77;;;;;;;3.27;100.00;99117.80;2838976;82;20988;-64
2022/11/21 12:59:03;;;;;;;27.80;19.40;;;;;;;3.09;100.00;99124.34;2935000;80;20971;-63
2022/11/21 13:03:27;;;;;;;;;;;;;;;3.11;100.00;99131.19;2886093;82;21023;-64
2022/11/21 13:07:31;;;;;;;23.40;15.53;;;;;;;3.00;100.00;99129.30;2919325;81;20063;-62
2022/11/21 13:11:57;;;;;;;23.83;16.23;;;;;;;2.98;100.00;99139.08;2932412;78;21005;-62
2022/11/21 13:16:09;;;;;;;20.90;15.00;;;;;;;2.85;100.00;99155.30;2928314;80;20912;-62
2022/11/21 13:20:29;;;;;;;30.37;16.67;;;;;;;2.71;100.00;99148.36;2955001;80;21046;-62
2022/11/21 13:24:55;;;;;;;25.12;17.45;;;;;;;2.55;100.00;99152.02;2901871;80;21534;-62
2022/11/21 13:29:13;;;;;;;22.32;14.85;;;;;;;2.38;100.00;99165.41;3015519;79;21030;-62
2022/11/21 13:33:37;;;;;;;27.55;13.35;;;;;;;2.30;100.00;99169.84;3003710;79;20930;-62
2022/11/21 13:38:05;;;;;;;23.80;16.00;;;;;;;2.28;100.00;99183.09;3021913;77;21046;-61
2022/11/21 13:47:26;;;;;;;21.82;14.18;;;;;;;2.18;100.00;99195.59;3037203;77;21043;-61
2022/11/21 13:51:51;;;;;;;20.90;17.07;;;;;;;2.14;100.00;99203.64;2997178;78;20964;-63
2022/11/21 13:56:14;;;;;;;32.00;16.32;;;;;;;2.18;100.00;99213.96;2971122;77;20976;-62
2022/11/21 14:01:03;;;;;;;30.85;16.65;;;;;;;2.13;100.00;99212.94;2918830;79;21041;-62
2022/11/21 14:05:46;;;;;;;22.82;14.90;;;;;;;2.15;100.00;99218.92;2989601;77;21014;-63
2022/11/21 14:09:51;;;;;;;28.07;20.10;;;;;;;2.05;100.00;99213.42;2970813;79;20964;-62
2022/11/21 14:13:53;;;;;;;25.63;17.17;;;;;;;2.11;100.00;99213.02;2889959;80;21036;-62
2022/11/21 14:18:00;;;;;;;34.98;17.77;;;;;;;2.09;100.00;99217.53;2880716;80;21015;-61
2022/11/21 14:22:02;;;;;;;26.37;16.85;;;;;;;2.03;100.00;99221.86;2897899;80;21009;-62
2022/11/21 14:26:20;;;;;;;33.33;21.57;;;;;;;2.02;100.00;99220.63;2900287;80;21681;-62
2022/11/21 14:30:37;;;;;;;30.17;21.10;;;;;;;1.96;100.00;99213.98;2993468;77;21034;-63
2022/11/21 14:34:39;;;;;;;31.35;22.60;;;;;;;2.01;100.00;99218.50;2955739;79;20971;-62
2022/11/21 14:38:54;;;;;;;38.42;24.50;;;;;;;1.99;100.00;99229.56;2973791;79;21007;-61
2022/11/21 14:42:55;;;;;;;69.95;41.58;;;;;;;2.09;100.00;99230.64;2946086;79;20972;-62
2022/11/21 14:47:15;;;;;;;48.63;28.27;;;;;;;2.13;100.00;99238.69;2958483;79;21033;-62
2022/11/21 14:51:21;;;;;;;30.43;17.70;;;;;;;2.07;100.00;99243.02;2935411;79;21078;-61
2022/11/21 14:55:41;;;;;;;30.72;13.88;;;;;;;2.03;100.00;99241.53;2998176;78;21113;-62
2022/11/21 14:59:43;;;;;;;23.83;15.00;;;;;;;2.03;100.00;99251.17;2986752;78;21256;-61
2022/11/21 15:04:07;;;;;;;30.02;16.97;;;;;;;2.05;100.00;99258.47;2932207;80;21028;-61
2022/11/21 15:08:28;;;;;;;40.25;24.18;;;;;;;2.21;100.00;99262.30;2934424;80;20967;-60
2022/11/21 15:12:41;;;;;;;24.25;16.62;;;;;;;2.24;100.00;99262.10;2873943;80;21018;-63
2022/11/21 15:16:45;;;;;;;26.25;15.88;;;;;;;2.17;100.00;99263.45;2926178;79;21232;-62
2022/11/21 15:20:55;;;;;;;33.28;22.77;;;;;;;2.18;100.00;99266.44;2899858;80;21022;-63
2022/11/21 15:25:17;;;;;;;35.63;21.73;;;;;;;2.27;100.00;99261.90;2888126;80;20968;-61
2022/11/21 15:29:30;;;;;;;35.05;20.75;;;;;;;2.31;100.00;99263.88;2819290;82;21024;-61
2022/11/21 15:33:54;;;;;;;32.23;23.85;;;;;;;2.27;100.00;99261.90;2818666;82;21075;-61
2022/11/21 15:37:55;;;;;;;35.68;22.17;;;;;;;2.22;100.00;99248.24;2858374;82;21076;-62
2022/11/21 15:42:22;;;;;;;29.55;21.33;;;;;;;2.18;100.00;99250.70;2876255;81;21102;-61
2022/11/21 15:46:33;;;;;;;34.13;22.80;;;;;;;2.19;100.00;99244.50;2866973;81;20996;-62
2022/11/21 15:50:36;;;;;;;25.82;19.95;;;;;;;2.13;100.00;99235.23;2874039;82;21082;-62
2022/11/21 15:54:38;;;;;;;31.70;20.10;;;;;;;2.20;100.00;99242.25;2843702;82;21025;-63
2022/11/21 15:58:39;;;;;;;49.08;28.87;;;;;;;2.18;100.00;99245.45;2855436;82;21039;-62
2022/11/21 16:02:42;;;;;;;47.90;29.05;;;;;;;2.17;99.81;99245.91;2838633;79;21021;-62
2022/11/21 16:06:43;;;;;;;41.15;28.15;;;;;;;2.14;99.77;99237.74;2949233;78;20979;-61
2022/11/21 16:10:44;;;;;;;40.38;25.97;;;;;;;2.12;100.00;99229.63;2939327;80;20983;-62
2022/11/21 16:14:54;;;;;;;36.90;21.68;;;;;;;2.13;99.96;99224.25;2956108;78;21014;-63
2022/11/21 16:18:56;;;;;;;36.98;25.48;;;;;;;2.06;99.97;99224.28;2959162;78;20967;-62
2022/11/21 16:22:58;;;;;;;53.50;25.32;;;;;;;2.04;100.00;99222.23;2943655;78;20967;-62
2022/11/21 16:27:01;;;;;;;40.73;22.60;;;;;;;1.93;100.00;99228.16;2972355;78;20955;-62
2022/11/21 16:31:21;;;;;;;35.85;22.15;;;;;;;1.89;100.00;99229.75;2974664;78;20978;-62
2022/11/21 16:35:23;;;;;;;34.38;21.90;;;;;;;1.80;100.00;99227.23;2880395;81;21033;-62
2022/11/21 16:39:24;;;;;;;24.45;17.23;;;;;;;1.73;100.00;99219.39;2957376;79;20927;-61
2022/11/21 16:43:28;;;;;;;35.70;20.52;;;;;;;1.74;99.11;99221.90;2988196;78;20958;-61
2022/11/21 16:47:37;;;;;;;36.28;21.33;;;;;;;1.81;99.93;99226.30;2926013;80;20979;-64
2022/11/21 16:51:38;;;;;;;53.50;29.70;;;;;;;1.76;97.98;99227.89;2952175;79;21007;-63
2022/11/21 16:55:41;;;;;;;53.80;29.52;;;;;;;1.74;97.78;99239.42;2878153;81;28232;-62
2022/11/21 16:59:42;;;;;;;28.95;17.27;;;;;;;1.67;98.24;99236.34;2994303;78;21063;-62
2022/11/21 17:03:46;;;;;;;27.45;18.27;;;;;;;1.58;99.11;99230.36;2941987;78;21009;-62
2022/11/21 17:07:48;;;;;;;27.65;18.70;;;;;;;1.53;99.24;99220.16;2933484;79;21023;-62
2022/11/21 17:11:49;;;;;;;34.50;20.17;;;;;;;1.47;98.99;99214.81;2959371;79;21077;-62
2022/11/21 17:15:51;;;;;;;38.45;27.17;;;;;;;1.47;98.63;99217.89;2903456;79;20951;-63
2022/11/21 17:19:53;;;;;;;112.08;69.00;;;;;;;1.60;99.36;99219.31;2921951;79;20983;-62
2022/11/21 17:23:54;;;;;;;93.17;55.38;;;;;;;1.69;98.16;99219.59;2870784;80;20987;-62
2022/11/21 17:27:56;;;;;;;67.45;42.05;;;;;;;1.75;96.80;99230.14;2900661;79;20991;-62
2022/11/21 17:31:57;;;;;;;49.93;32.60;;;;;;;1.86;96.64;99238.64;2975090;77;21588;-62
2022/11/21 17:36:03;;;;;;;53.15;31.73;;;;;;;1.95;95.94;99245.09;2958258;79;21000;-62
2022/11/21 17:40:10;;;;;;;44.05;27.60;;;;;;;2.02;94.47;99252.97;2908112;80;21078;-63
2022/11/21 17:44:16;;;;;;;49.42;28.65;;;;;;;2.05;94.11;99255.39;2934393;79;20999;-64
2022/11/21 17:48:17;;;;;;;53.17;33.00;;;;;;;2.09;93.92;99256.05;2893100;80;21007;-62
2022/11/21 17:52:20;;;;;;;54.35;29.92;;;;;;;2.05;93.91;99256.70;2900138;80;21046;-64
2022/11/21 17:56:25;;;;;;;36.48;25.48;;;;;;;2.11;94.50;99256.31;2908574;81;21058;-63
2022/11/21 18:00:26;;;;;;;44.23;29.07;;;;;;;2.10;93.63;99253.80;2945357;78;20991;-63
2022/11/21 18:04:27;;;;;;;51.00;37.03;;;;;;;2.08;95.14;99252.58;2933467;78;21010;-64
2022/11/21 18:08:32;;;;;;;97.53;62.30;;;;;;;2.11;94.66;99249.75;2944911;78;20990;-61
2022/11/21 18:12:38;;;;;;;84.35;54.42;;;;;;;2.24;96.07;99247.67;2970028;80;21065;-62
2022/11/21 18:16:40;;;;;;;87.05;52.08;;;;;;;2.37;96.08;99252.52;2900617;81;21004;-62
2022/11/21 18:20:42;;;;;;;76.33;48.58;;;;;;;2.46;94.84;99248.91;3011640;78;21054;-61
2022/11/21 18:24:43;;;;;;;40.60;29.00;;;;;;;2.56;94.73;99239.02;3048122;77;21023;-62
2022/11/21 18:28:45;;;;;;;56.75;36.90;;;;;;;2.62;93.98;99244.34;3050394;77;20984;-62
2022/11/21 18:33:03;;;;;;;49.83;28.65;;;;;;;2.61;92.58;99238.73;3031425;78;21010;-62
2022/11/21 18:37:04;;;;;;;48.40;29.65;;;;;;;2.57;92.98;99234.14;3016708;77;21014;-63
2022/11/21 18:41:11;;;;;;;39.10;22.10;;;;;;;2.58;92.79;99227.12;3033224;77;21034;-62
2022/11/21 18:45:17;;;;;;;;;;;;;;;2.51;92.29;99231.92;3038289;77;20909;-62
2022/11/21 18:49:19;;;;;;;40.03;25.02;;;;;;;2.42;92.88;99233.36;3042363;77;20074;-63
2022/11/21 18:53:20;;;;;;;41.60;28.25;;;;;;;2.40;93.35;99224.75;3018792;77;21085;-62
2022/11/21 18:57:21;;;;;;;39.98;23.92;;;;;;;2.31;92.43;99230.58;3037834;77;21012;-64
2022/11/21 19:01:27;;;;;;;44.85;30.02;;;;;;;2.16;92.61;99232.41;3035599;77;21269;-62
2022/11/21 19:05:29;;;;;;;52.67;29.77;;;;;;;2.07;93.76;99218.59;3025618;77;20983;-62
2022/11/21 19:09:30;;;;;;;52.08;28.70;;;;;;;2.05;93.60;99208.17;2917026;78;21027;-61
2022/11/21 19:13:32;;;;;;;33.35;22.77;;;;;;;1.97;93.60;99209.97;2995091;77;20992;-65
2022/11/21 19:17:34;;;;;;;42.15;28.47;;;;;;;1.94;94.10;99211.94;2972054;78;21031;-62
2022/11/21 19:21:37;;;;;;;41.98;24.98;;;;;;;1.97;93.82;99207.83;3003626;77;20963;-63
2022/11/21 19:25:41;;;;;;;35.73;22.45;;;;;;;1.92;93.54;99204.64;2990513;78;20970;-62
2022/11/21 19:29:43;;;;;;;37.00;23.50;;;;;;;1.90;93.73;99211.77;2979701;78;20944;-63
2022/11/21 19:33:47;;;;;;;51.05;33.38;;;;;;;1.91;93.75;99214.76;2986746;77;21003;-64
2022/11/21 19:37:48;;;;;;;70.05;41.65;;;;;;;1.87;93.26;99224.63;3025088;77;21026;-62
2022/11/21 19:41:50;;;;;;;83.45;46.13;;;;;;;1.81;93.12;99219.28;3002992;79;21072;-62
2022/11/21 19:45:51;;;;;;;69.65;42.05;;;;;;;1.80;93.63;99224.16;3017697;77;20932;-61
2022/11/21 19:49:54;;;;;;;95.03;49.30;;;;;;;1.72;93.30;99221.16;3027302;77;21064;-62
2022/11/21 19:53:57;;;;;;;87.88;44.27;;;;;;;1.67;93.84;99224.54;2970365;77;20993;-63